sensor_id;sensor_type;location;lat;lon;timestamp;pressure;altitude;pressure_sealevel;temperature;humidity
80682;BME280;70045;40.200;44.582;2024-01-15T09:11:26;86467.84;;;13.98;25.72
80682;BME280;70045;40.200;44.582;2024-01-15T09:13:51;86461.72;;;14.53;25.00
80682;BME280;70045;40.200;44.582;2024-01-15T09:16:16;86455.19;;;14.83;25.97
80682;BME280;70045;40.200;44.582;2024-01-15T09:18:42;86444.00;;;14.82;24.09
80682;BME280;70045;40.200;44.582;2024-01-15T09:21:07;86452.28;;;14.81;24.29
80682;BME280;70045;40.200;44.582;2024-01-15T09:23:38;86461.78;;;15.32;23.71
80682;BME280;70045;40.200;44.582;2024-01-15T09:26:04;86441.13;;;15.24;24.52
80682;BME280;70045;40.200;44.582;2024-01-15T09:28:29;86439.63;;;15.68;24.06
80682;BME280;70045;40.200;44.582;2024-01-15T09:30:54;86438.38;;;16.13;22.64
80682;BME280;70045;40.200;44.582;2024-01-15T09:33:20;86441.13;;;16.68;26.82
80682;BME280;70045;40.200;44.582;2024-01-15T09:35:48;86430.94;;;16.80;21.34
80682;BME280;70045;40.200;44.582;2024-01-15T09:38:13;86435.94;;;17.24;21.23
80682;BME280;70045;40.200;44.582;2024-01-15T09:40:43;86433.06;;;17.92;21.13
80682;BME280;70045;40.200;44.582;2024-01-15T09:43:08;86427.69;;;17.86;20.44
80682;BME280;70045;40.200;44.582;2024-01-15T09:45:34;86432.63;;;17.94;18.97
80682;BME280;70045;40.200;44.582;2024-01-15T09:48:04;86421.75;;;18.19;20.87
80682;BME280;70045;40.200;44.582;2024-01-15T09:50:29;86436.91;;;17.36;19.69
80682;BME280;70045;40.200;44.582;2024-01-15T09:52:55;86427.97;;;17.88;20.92
80682;BME280;70045;40.200;44.582;2024-01-15T09:55:21;86420.63;;;16.85;21.13
80682;BME280;70045;40.200;44.582;2024-01-15T09:57:47;86439.69;;;14.54;24.15
80682;BME280;70045;40.200;44.582;2024-01-15T10:00:17;86446.59;;;12.60;23.55
80682;BME280;70045;40.200;44.582;2024-01-15T10:02:43;86447.03;;;11.40;24.47
80682;BME280;70045;40.200;44.582;2024-01-15T10:05:09;86449.47;;;10.71;28.04
80682;BME280;70045;40.200;44.582;2024-01-15T10:07:35;86446.91;;;10.04;26.32
80682;BME280;70045;40.200;44.582;2024-01-15T10:10:01;86428.97;;;9.11;28.74
80682;BME280;70045;40.200;44.582;2024-01-15T10:12:29;86447.59;;;8.99;29.12
80682;BME280;70045;40.200;44.582;2024-01-15T10:14:58;86451.91;;;8.78;28.75
80682;BME280;70045;40.200;44.582;2024-01-15T10:17:24;86419.66;;;8.56;30.41
80682;BME280;70045;40.200;44.582;2024-01-15T10:19:50;86452.25;;;8.46;29.02
80682;BME280;70045;40.200;44.582;2024-01-15T10:22:15;86451.78;;;8.17;30.83
80682;BME280;70045;40.200;44.582;2024-01-15T10:24:44;86458.84;;;7.67;33.40
80682;BME280;70045;40.200;44.582;2024-01-15T10:27:10;86458.28;;;7.42;33.37
80682;BME280;70045;40.200;44.582;2024-01-15T10:29:36;86457.19;;;7.35;33.18
80682;BME280;70045;40.200;44.582;2024-01-15T10:32:11;86445.69;;;7.47;33.73
80682;BME280;70045;40.200;44.582;2024-01-15T10:34:40;86450.78;;;7.58;33.76
80682;BME280;70045;40.200;44.582;2024-01-15T10:37:09;86463.72;;;7.51;34.78
80682;BME280;70045;40.200;44.582;2024-01-15T10:39:35;86467.47;;;7.43;37.78
80682;BME280;70045;40.200;44.582;2024-01-15T10:42:00;86469.34;;;7.39;37.55
80682;BME280;70045;40.200;44.582;2024-01-15T10:44:26;86472.31;;;7.33;38.29
80682;BME280;70045;40.200;44.582;2024-01-15T10:46:51;86473.78;;;7.34;38.07
80682;BME280;70045;40.200;44.582;2024-01-15T10:49:20;86467.59;;;7.21;38.46
80682;BME280;70045;40.200;44.582;2024-01-15T10:51:47;86450.03;;;7.02;38.09
80682;BME280;70045;40.200;44.582;2024-01-15T10:54:13;86475.03;;;7.12;37.49
80682;BME280;70045;40.200;44.582;2024-01-15T10:56:39;86486.47;;;7.04;38.59
80682;BME280;70045;40.200;44.582;2024-01-15T10:59:05;86471.09;;;6.89;40.12
80682;BME280;70045;40.200;44.582;2024-01-15T11:01:34;86468.91;;;6.84;39.30
80682;BME280;70045;40.200;44.582;2024-01-15T11:04:00;86476.00;;;6.51;39.21
80682;BME280;70045;40.200;44.582;2024-01-15T11:06:27;86474.88;;;6.52;39.48
80682;BME280;70045;40.200;44.582;2024-01-15T11:08:53;86488.84;;;6.62;38.91
80682;BME280;70045;40.200;44.582;2024-01-15T11:11:20;86485.91;;;6.64;39.57
80682;BME280;70045;40.200;44.582;2024-01-15T11:13:50;86484.03;;;6.71;38.16
80682;BME280;70045;40.200;44.582;2024-01-15T11:16:15;86485.94;;;6.56;37.87
80682;BME280;70045;40.200;44.582;2024-01-15T11:21:26;86493.69;;;6.49;38.54
80682;BME280;70045;40.200;44.582;2024-01-15T11:23:56;86496.22;;;6.56;37.59
80682;BME280;70045;40.200;44.582;2024-01-15T11:29:30;86495.91;;;6.36;37.84
80682;BME280;70045;40.200;44.582;2024-01-15T11:31:59;86498.50;;;6.18;38.29
80682;BME280;70045;40.200;44.582;2024-01-15T11:34:51;86500.34;;;6.14;38.48
80682;BME280;70045;40.200;44.582;2024-01-15T11:37:18;86502.94;;;6.03;38.91
80682;BME280;70045;40.200;44.582;2024-01-15T11:39:44;86504.03;;;5.88;40.19
80682;BME280;70045;40.200;44.582;2024-01-15T11:42:11;86511.00;;;5.80;40.10
80682;BME280;70045;40.200;44.582;2024-01-15T11:44:40;86508.06;;;5.50;41.07
80682;BME280;70045;40.200;44.582;2024-01-15T11:47:07;86511.72;;;5.34;41.55
80682;BME280;70045;40.200;44.582;2024-01-15T11:50:01;86519.78;;;5.36;41.49
80682;BME280;70045;40.200;44.582;2024-01-15T11:52:53;86500.34;;;5.42;40.20
80682;BME280;70045;40.200;44.582;2024-01-15T11:55:30;86516.16;;;5.80;39.87
80682;BME280;70045;40.200;44.582;2024-01-15T11:58:00;86451.13;;;5.30;40.85
80682;BME280;70045;40.200;44.582;2024-01-15T12:00:26;86527.91;;;5.74;41.21
80682;BME280;70045;40.200;44.582;2024-01-15T12:02:52;86522.03;;;5.66;40.43
80682;BME280;70045;40.200;44.582;2024-01-15T12:05:19;86527.19;;;5.49;41.31
80682;BME280;70045;40.200;44.582;2024-01-15T12:07:50;86535.97;;;5.58;41.96
80682;BME280;70045;40.200;44.582;2024-01-15T12:10:20;86542.59;;;5.56;41.86
80682;BME280;70045;40.200;44.582;2024-01-15T12:12:57;86535.25;;;5.58;41.35
80682;BME280;70045;40.200;44.582;2024-01-15T12:15:30;86538.94;;;5.64;41.59
80682;BME280;70045;40.200;44.582;2024-01-15T12:17:59;86542.25;;;5.72;41.10
80682;BME280;70045;40.200;44.582;2024-01-15T12:20:26;86546.28;;;5.69;39.78
80682;BME280;70045;40.200;44.582;2024-01-15T12:22:53;86548.47;;;5.60;40.19
80682;BME280;70045;40.200;44.582;2024-01-15T12:25:18;86563.19;;;5.63;40.29
80682;BME280;70045;40.200;44.582;2024-01-15T12:27:44;86566.13;;;5.65;40.18
80682;BME280;70045;40.200;44.582;2024-01-15T12:30:16;86565.41;;;5.61;40.05
80682;BME280;70045;40.200;44.582;2024-01-15T12:32:43;86557.28;;;5.52;40.43
80682;BME280;70045;40.200;44.582;2024-01-15T12:35:10;86537.78;;;5.29;40.19
80682;BME280;70045;40.200;44.582;2024-01-15T12:37:36;86570.88;;;5.49;40.13
80682;BME280;70045;40.200;44.582;2024-01-15T12:40:03;86570.13;;;5.52;40.33
80682;BME280;70045;40.200;44.582;2024-01-15T12:42:33;86576.00;;;5.45;40.57
80682;BME280;70045;40.200;44.582;2024-01-15T12:45:00;86574.13;;;5.31;40.89
80682;BME280;70045;40.200;44.582;2024-01-15T12:47:26;86582.94;;;5.26;39.92
80682;BME280;70045;40.200;44.582;2024-01-15T12:49:52;86583.66;;;5.16;40.39
80682;BME280;70045;40.200;44.582;2024-01-15T12:52:19;86578.47;;;5.09;41.53
80682;BME280;70045;40.200;44.582;2024-01-15T12:54:49;86577.00;;;5.04;41.04
80682;BME280;70045;40.200;44.582;2024-01-15T12:57:14;86580.97;;;4.91;41.86
80682;BME280;70045;40.200;44.582;2024-01-15T12:59:40;86586.75;;;4.74;41.98
80682;BME280;70045;40.200;44.582;2024-01-15T13:02:05;86581.53;;;4.52;43.53
80682;BME280;70045;40.200;44.582;2024-01-15T13:04:31;86584.09;;;4.52;43.34
80682;BME280;70045;40.200;44.582;2024-01-15T13:06:59;86592.81;;;4.37;43.33
80682;BME280;70045;40.200;44.582;2024-01-15T13:09:24;86588.72;;;4.28;43.16
80682;BME280;70045;40.200;44.582;2024-01-15T13:11:50;86572.13;;;4.11;42.75
80682;BME280;70045;40.200;44.582;2024-01-15T13:14:15;86591.94;;;4.18;44.04
80682;BME280;70045;40.200;44.582;2024-01-15T13:16:41;86603.63;;;4.12;44.14
80682;BME280;70045;40.200;44.582;2024-01-15T13:19:10;86597.69;;;4.01;44.78
80682;BME280;70045;40.200;44.582;2024-01-15T13:21:37;86606.44;;;3.92;44.73
80682;BME280;70045;40.200;44.582;2024-01-15T13:24:02;86606.97;;;3.71;46.61
80682;BME280;70045;40.200;44.582;2024-01-15T13:26:28;86607.88;;;3.49;46.83
80682;BME280;70045;40.200;44.582;2024-01-15T13:28:53;86602.25;;;3.36;47.31
80682;BME280;70045;40.200;44.582;2024-01-15T13:31:21;86615.97;;;3.17;48.25
80682;BME280;70045;40.200;44.582;2024-01-15T13:33:47;86615.06;;;3.02;48.62
80682;BME280;70045;40.200;44.582;2024-01-15T13:36:12;86605.84;;;2.94;48.09
80682;BME280;70045;40.200;44.582;2024-01-15T13:38:38;86604.28;;;2.86;48.50
80682;BME280;70045;40.200;44.582;2024-01-15T13:41:07;86611.88;;;2.78;49.89
80682;BME280;70045;40.200;44.582;2024-01-15T13:43:36;86614.72;;;2.70;50.31
80682;BME280;70045;40.200;44.582;2024-01-15T13:46:02;86617.53;;;2.61;49.55
80682;BME280;70045;40.200;44.582;2024-01-15T13:48:27;86620.38;;;2.56;49.68
80682;BME280;70045;40.200;44.582;2024-01-15T13:50:53;86614.09;;;2.50;51.32
80682;BME280;70045;40.200;44.582;2024-01-15T13:53:18;86607.50;;;2.49;51.19
80682;BME280;70045;40.200;44.582;2024-01-15T13:55:47;86615.13;;;2.45;50.68
80682;BME280;70045;40.200;44.582;2024-01-15T13:58:13;86619.41;;;2.37;51.25
80682;BME280;70045;40.200;44.582;2024-01-15T14:00:38;86618.16;;;2.24;52.24
80682;BME280;70045;40.200;44.582;2024-01-15T14:03:04;86610.34;;;2.17;51.76
80682;BME280;70045;40.200;44.582;2024-01-15T14:05:29;86625.41;;;2.22;51.54
80682;BME280;70045;40.200;44.582;2024-01-15T14:07:58;86633.66;;;2.12;52.09
80682;BME280;70045;40.200;44.582;2024-01-15T14:10:23;86626.75;;;2.12;51.81
80682;BME280;70045;40.200;44.582;2024-01-15T14:12:48;86625.59;;;2.10;52.34
80682;BME280;70045;40.200;44.582;2024-01-15T14:15:14;86634.38;;;2.09;51.53
80682;BME280;70045;40.200;44.582;2024-01-15T14:17:39;86636.59;;;2.10;51.49
80682;BME280;70045;40.200;44.582;2024-01-15T14:20:09;86631.00;;;2.04;52.73
80682;BME280;70045;40.200;44.582;2024-01-15T14:22:34;86644.41;;;1.98;51.73
80682;BME280;70045;40.200;44.582;2024-01-15T14:25:00;86643.56;;;1.90;51.39
80682;BME280;70045;40.200;44.582;2024-01-15T14:27:26;86639.53;;;1.89;51.13
80682;BME280;70045;40.200;44.582;2024-01-15T14:29:51;86646.69;;;1.80;52.03
80682;BME280;70045;40.200;44.582;2024-01-15T14:32:20;86625.59;;;1.60;53.16
80682;BME280;70045;40.200;44.582;2024-01-15T14:34:46;86624.31;;;1.50;53.69
80682;BME280;70045;40.200;44.582;2024-01-15T14:37:11;86655.53;;;1.63;54.41
80682;BME280;70045;40.200;44.582;2024-01-15T14:39:37;86655.50;;;1.59;52.19
80682;BME280;70045;40.200;44.582;2024-01-15T14:42:02;86660.81;;;1.50;53.33
80682;BME280;70045;40.200;44.582;2024-01-15T14:44:31;86652.44;;;1.50;51.99
80682;BME280;70045;40.200;44.582;2024-01-15T14:46:56;86669.16;;;1.47;51.53
80682;BME280;70045;40.200;44.582;2024-01-15T14:49:21;86667.78;;;1.30;55.19
80682;BME280;70045;40.200;44.582;2024-01-15T14:51:47;86665.34;;;1.38;53.00
80682;BME280;70045;40.200;44.582;2024-01-15T14:54:12;86671.81;;;1.31;52.25
80682;BME280;70045;40.200;44.582;2024-01-15T14:56:40;86668.84;;;1.29;53.19
80682;BME280;70045;40.200;44.582;2024-01-15T14:59:06;86673.97;;;1.29;52.88
80682;BME280;70045;40.200;44.582;2024-01-15T15:01:31;86676.00;;;1.20;53.66
80682;BME280;70045;40.200;44.582;2024-01-15T15:03:57;86684.13;;;1.26;53.68
80682;BME280;70045;40.200;44.582;2024-01-15T15:06:22;86678.53;;;1.20;53.49
80682;BME280;70045;40.200;44.582;2024-01-15T15:08:51;86671.28;;;1.03;52.64
80682;BME280;70045;40.200;44.582;2024-01-15T15:11:17;86692.91;;;1.09;51.63
80682;BME280;70045;40.200;44.582;2024-01-15T15:13:42;86691.56;;;0.96;53.22
80682;BME280;70045;40.200;44.582;2024-01-15T15:16:08;86695.41;;;1.05;52.23
80682;BME280;70045;40.200;44.582;2024-01-15T15:18:35;86700.78;;;1.00;51.99
80682;BME280;70045;40.200;44.582;2024-01-15T15:21:04;86693.69;;;0.93;52.09
80682;BME280;70045;40.200;44.582;2024-01-15T15:23:29;86697.94;;;0.86;51.57
80682;BME280;70045;40.200;44.582;2024-01-15T15:25:55;86698.88;;;0.78;51.10
80682;BME280;70045;40.200;44.582;2024-01-15T15:28:20;86691.88;;;0.74;51.82
80682;BME280;70045;40.200;44.582;2024-01-15T15:30:45;86698.31;;;0.68;51.48
80682;BME280;70045;40.200;44.582;2024-01-15T15:33:14;86693.06;;;0.61;52.48
80682;BME280;70045;40.200;44.582;2024-01-15T15:35:39;86699.72;;;0.66;52.96
80682;BME280;70045;40.200;44.582;2024-01-15T15:38:05;86702.84;;;0.75;52.39
80682;BME280;70045;40.200;44.582;2024-01-15T15:40:30;86698.75;;;0.90;52.94
80682;BME280;70045;40.200;44.582;2024-01-15T15:42:55;86695.38;;;0.86;51.77
80682;BME280;70045;40.200;44.582;2024-01-15T15:45:24;86704.03;;;0.81;50.92
80682;BME280;70045;40.200;44.582;2024-01-15T15:47:49;86709.22;;;0.49;49.36
80682;BME280;70045;40.200;44.582;2024-01-15T15:50:15;86707.44;;;0.18;48.83
80682;BME280;70045;40.200;44.582;2024-01-15T15:52:40;86718.78;;;0.05;47.72
80682;BME280;70045;40.200;44.582;2024-01-15T15:55:06;86715.75;;;-0.01;46.20
80682;BME280;70045;40.200;44.582;2024-01-15T15:57:34;86706.88;;;-0.07;45.27
80682;BME280;70045;40.200;44.582;2024-01-15T15:59:59;86701.13;;;-0.04;45.30
80682;BME280;70045;40.200;44.582;2024-01-15T16:02:25;86705.47;;;-0.05;46.77
80682;BME280;70045;40.200;44.582;2024-01-15T16:04:50;86714.19;;;-0.06;46.64
80682;BME280;70045;40.200;44.582;2024-01-15T16:07:16;86707.72;;;-0.03;47.18
80682;BME280;70045;40.200;44.582;2024-01-15T16:09:45;86709.16;;;-0.02;47.22
80682;BME280;70045;40.200;44.582;2024-01-15T16:12:10;86711.22;;;0.08;47.08
80682;BME280;70045;40.200;44.582;2024-01-15T16:14:36;86714.94;;;0.11;46.92
80682;BME280;70045;40.200;44.582;2024-01-15T16:17:01;86713.84;;;0.12;46.90
80682;BME280;70045;40.200;44.582;2024-01-15T16:19:26;86709.44;;;0.09;45.82
80682;BME280;70045;40.200;44.582;2024-01-15T16:21:56;86711.88;;;-0.11;45.93
80682;BME280;70045;40.200;44.582;2024-01-15T16:24:21;86709.66;;;-0.12;46.54
80682;BME280;70045;40.200;44.582;2024-01-15T16:26:47;86704.47;;;-0.16;46.25
80682;BME280;70045;40.200;44.582;2024-01-15T16:29:12;86711.00;;;-0.18;46.67
80682;BME280;70045;40.200;44.582;2024-01-15T16:31:38;86708.44;;;-0.18;46.81
80682;BME280;70045;40.200;44.582;2024-01-15T16:34:06;86687.47;;;-0.28;47.34
80682;BME280;70045;40.200;44.582;2024-01-15T16:36:32;86693.47;;;-0.36;47.41
80682;BME280;70045;40.200;44.582;2024-01-15T16:38:57;86686.88;;;-0.37;47.31
80682;BME280;70045;40.200;44.582;2024-01-15T16:41:23;86691.00;;;-0.32;47.34
80682;BME280;70045;40.200;44.582;2024-01-15T16:43:48;86700.97;;;-0.11;47.16
80682;BME280;70045;40.200;44.582;2024-01-15T16:46:17;86701.97;;;0.00;46.97
80682;BME280;70045;40.200;44.582;2024-01-15T16:48:42;86705.66;;;0.03;46.69
80682;BME280;70045;40.200;44.582;2024-01-15T16:51:07;86704.06;;;-0.02;46.38
80682;BME280;70045;40.200;44.582;2024-01-15T16:53:33;86697.44;;;-0.07;45.96
80682;BME280;70045;40.200;44.582;2024-01-15T16:55:58;86699.53;;;-0.09;45.63
80682;BME280;70045;40.200;44.582;2024-01-15T16:58:27;86702.38;;;-0.14;44.95
80682;BME280;70045;40.200;44.582;2024-01-15T17:00:53;86709.25;;;-0.14;45.34
80682;BME280;70045;40.200;44.582;2024-01-15T17:03:18;86705.91;;;-0.18;44.35
80682;BME280;70045;40.200;44.582;2024-01-15T17:05:44;86717.38;;;-0.25;43.84
80682;BME280;70045;40.200;44.582;2024-01-15T17:08:09;86705.59;;;-0.45;44.02
80682;BME280;70045;40.200;44.582;2024-01-15T17:10:37;86716.53;;;-0.61;44.15
80682;BME280;70045;40.200;44.582;2024-01-15T17:13:03;86695.41;;;-0.89;44.29
80682;BME280;70045;40.200;44.582;2024-01-15T17:15:28;86720.31;;;-0.83;44.12
80682;BME280;70045;40.200;44.582;2024-01-15T17:17:54;86731.13;;;-0.86;44.73
80682;BME280;70045;40.200;44.582;2024-01-15T17:20:19;86724.91;;;-0.88;44.75
80682;BME280;70045;40.200;44.582;2024-01-15T17:22:48;86730.41;;;-0.86;44.32
80682;BME280;70045;40.200;44.582;2024-01-15T17:25:14;86730.81;;;-0.84;44.37
80682;BME280;70045;40.200;44.582;2024-01-15T17:27:39;86734.63;;;-0.78;44.45
80682;BME280;70045;40.200;44.582;2024-01-15T17:30:06;86737.59;;;-0.76;44.43
80682;BME280;70045;40.200;44.582;2024-01-15T17:32:31;86728.78;;;-0.79;44.57
80682;BME280;70045;40.200;44.582;2024-01-15T17:35:00;86736.50;;;-0.75;44.70
80682;BME280;70045;40.200;44.582;2024-01-15T17:37:26;86740.31;;;-0.69;45.27
80682;BME280;70045;40.200;44.582;2024-01-15T17:39:54;86744.09;;;-0.63;45.59
80682;BME280;70045;40.200;44.582;2024-01-15T17:42:20;86754.94;;;-0.66;45.52
80682;BME280;70045;40.200;44.582;2024-01-15T17:44:45;86743.19;;;-0.70;45.73
80682;BME280;70045;40.200;44.582;2024-01-15T17:47:13;86746.03;;;-0.72;45.79
80682;BME280;70045;40.200;44.582;2024-01-15T17:49:39;86744.56;;;-0.73;46.25
80682;BME280;70045;40.200;44.582;2024-01-15T17:52:05;86750.19;;;-0.67;46.31
80682;BME280;70045;40.200;44.582;2024-01-15T17:54:30;86753.69;;;-0.72;46.14
80682;BME280;70045;40.200;44.582;2024-01-15T17:56:57;86757.72;;;-0.71;46.52
80682;BME280;70045;40.200;44.582;2024-01-15T17:59:25;86765.50;;;-0.80;45.91
80682;BME280;70045;40.200;44.582;2024-01-15T18:01:51;86758.44;;;-0.99;45.23
80682;BME280;70045;40.200;44.582;2024-01-15T18:04:16;86761.84;;;-1.07;45.21
80682;BME280;70045;40.200;44.582;2024-01-15T18:06:42;86760.78;;;-1.06;45.44
80682;BME280;70045;40.200;44.582;2024-01-15T18:09:07;86735.38;;;-1.30;45.69
80682;BME280;70045;40.200;44.582;2024-01-15T18:11:36;86773.75;;;-1.11;45.57
80682;BME280;70045;40.200;44.582;2024-01-15T18:14:02;86760.34;;;-1.08;46.10
80682;BME280;70045;40.200;44.582;2024-01-15T18:16:27;86763.13;;;-1.13;45.66
80682;BME280;70045;40.200;44.582;2024-01-15T18:18:53;86765.69;;;-1.25;45.79
80682;BME280;70045;40.200;44.582;2024-01-15T18:21:21;86771.00;;;-1.30;45.81
80682;BME280;70045;40.200;44.582;2024-01-15T18:23:49;86765.50;;;-1.33;45.48
80682;BME280;70045;40.200;44.582;2024-01-15T18:26:15;86768.47;;;-1.43;46.16
80682;BME280;70045;40.200;44.582;2024-01-15T18:28:41;86773.13;;;-1.45;46.76
80682;BME280;70045;40.200;44.582;2024-01-15T18:31:06;86776.97;;;-1.39;46.20
80682;BME280;70045;40.200;44.582;2024-01-15T18:33:32;86772.50;;;-1.42;46.87
80682;BME280;70045;40.200;44.582;2024-01-15T18:36:04;86769.00;;;-1.25;46.97
80682;BME280;70045;40.200;44.582;2024-01-15T18:38:30;86778.00;;;-1.27;47.31
80682;BME280;70045;40.200;44.582;2024-01-15T18:40:56;86775.25;;;-1.35;47.86
80682;BME280;70045;40.200;44.582;2024-01-15T18:43:22;86779.50;;;-1.39;48.33
80682;BME280;70045;40.200;44.582;2024-01-15T18:45:47;86776.75;;;-1.34;48.19
80682;BME280;70045;40.200;44.582;2024-01-15T18:48:17;86773.31;;;-1.25;48.33
80682;BME280;70045;40.200;44.582;2024-01-15T18:50:43;86782.00;;;-1.14;48.63
80682;BME280;70045;40.200;44.582;2024-01-15T18:53:08;86772.47;;;-1.17;48.56
80682;BME280;70045;40.200;44.582;2024-01-15T18:55:34;86793.84;;;-0.93;48.04
80682;BME280;70045;40.200;44.582;2024-01-15T18:57:59;86795.09;;;-0.87;47.71
80682;BME280;70045;40.200;44.582;2024-01-15T19:00:28;86788.19;;;-0.87;48.25
80682;BME280;70045;40.200;44.582;2024-01-15T19:02:53;86788.19;;;-0.87;48.51
80682;BME280;70045;40.200;44.582;2024-01-15T19:05:18;86788.63;;;-0.85;48.88
80682;BME280;70045;40.200;44.582;2024-01-15T19:07:44;86792.78;;;-0.92;48.75
80682;BME280;70045;40.200;44.582;2024-01-15T19:10:09;86801.59;;;-0.90;48.40
80682;BME280;70045;40.200;44.582;2024-01-15T19:12:38;86805.19;;;-0.91;48.49
80682;BME280;70045;40.200;44.582;2024-01-15T19:15:04;86798.06;;;-0.85;48.45
80682;BME280;70045;40.200;44.582;2024-01-15T19:17:30;86793.41;;;-0.96;48.85
80682;BME280;70045;40.200;44.582;2024-01-15T19:19:55;86794.38;;;-1.00;48.83
80682;BME280;70045;40.200;44.582;2024-01-15T19:22:21;86802.56;;;-1.07;48.88
80682;BME280;70045;40.200;44.582;2024-01-15T19:24:50;86797.75;;;-0.96;49.86
80682;BME280;70045;40.200;44.582;2024-01-15T19:27:15;86799.03;;;-0.90;49.49
80682;BME280;70045;40.200;44.582;2024-01-15T19:29:40;86790.41;;;-0.85;49.21
80682;BME280;70045;40.200;44.582;2024-01-15T19:32:06;86792.13;;;-0.89;49.64
80682;BME280;70045;40.200;44.582;2024-01-15T19:34:31;86794.22;;;-0.79;49.60
80682;BME280;70045;40.200;44.582;2024-01-15T19:36:59;86794.09;;;-0.70;48.79
80682;BME280;70045;40.200;44.582;2024-01-15T19:39:25;86796.31;;;-0.69;48.65
80682;BME280;70045;40.200;44.582;2024-01-15T19:41:50;86790.81;;;-0.71;49.58
80682;BME280;70045;40.200;44.582;2024-01-15T19:44:16;86788.28;;;-0.71;49.76
80682;BME280;70045;40.200;44.582;2024-01-15T19:46:41;86791.41;;;-0.62;49.12
80682;BME280;70045;40.200;44.582;2024-01-15T19:49:09;86791.00;;;-0.64;49.25
80682;BME280;70045;40.200;44.582;2024-01-15T19:51:35;86782.66;;;-0.77;49.15
80682;BME280;70045;40.200;44.582;2024-01-15T19:54:00;86794.41;;;-0.72;49.23
80682;BME280;70045;40.200;44.582;2024-01-15T19:56:26;86790.16;;;-0.68;49.48
80682;BME280;70045;40.200;44.582;2024-01-15T19:58:51;86796.00;;;-0.67;49.33
80682;BME280;70045;40.200;44.582;2024-01-15T20:01:20;86798.84;;;-0.57;48.97
80682;BME280;70045;40.200;44.582;2024-01-15T20:03:46;86799.19;;;-0.42;48.96
80682;BME280;70045;40.200;44.582;2024-01-15T20:06:11;86806.53;;;-0.41;48.80
80682;BME280;70045;40.200;44.582;2024-01-15T20:08:37;86802.16;;;-0.40;48.68
80682;BME280;70045;40.200;44.582;2024-01-15T20:11:02;86799.97;;;-0.54;48.41
80682;BME280;70045;40.200;44.582;2024-01-15T20:13:31;86797.38;;;-0.70;48.73
80682;BME280;70045;40.200;44.582;2024-01-15T20:15:56;86811.91;;;-0.70;48.52
80682;BME280;70045;40.200;44.582;2024-01-15T20:18:21;86817.00;;;-0.70;48.69
80682;BME280;70045;40.200;44.582;2024-01-15T20:20:47;86811.31;;;-0.80;48.89
80682;BME280;70045;40.200;44.582;2024-01-15T20:23:12;86799.34;;;-0.91;48.95
80682;BME280;70045;40.200;44.582;2024-01-15T20:25:41;86814.63;;;-0.91;48.58
80682;BME280;70045;40.200;44.582;2024-01-15T20:28:06;86815.69;;;-1.05;48.72
80682;BME280;70045;40.200;44.582;2024-01-15T20:30:32;86813.81;;;-1.20;48.86
80682;BME280;70045;40.200;44.582;2024-01-15T20:32:57;86820.28;;;-1.23;48.58
80682;BME280;70045;40.200;44.582;2024-01-15T20:35:22;86823.34;;;-1.17;48.99
80682;BME280;70045;40.200;44.582;2024-01-15T20:37:52;86815.28;;;-1.07;49.20
80682;BME280;70045;40.200;44.582;2024-01-15T20:40:17;86832.34;;;-0.95;49.50
80682;BME280;70045;40.200;44.582;2024-01-15T20:42:43;86836.56;;;-0.87;49.45
80682;BME280;70045;40.200;44.582;2024-01-15T20:45:08;86835.19;;;-0.84;49.44
80682;BME280;70045;40.200;44.582;2024-01-15T20:47:33;86841.28;;;-0.73;49.10
80682;BME280;70045;40.200;44.582;2024-01-15T20:50:02;86832.19;;;-0.74;49.58
80682;BME280;70045;40.200;44.582;2024-01-15T20:52:27;86839.84;;;-0.74;50.01
80682;BME280;70045;40.200;44.582;2024-01-15T20:54:53;86847.25;;;-0.69;50.24
80682;BME280;70045;40.200;44.582;2024-01-15T20:57:18;86843.63;;;-0.68;49.13
80682;BME280;70045;40.200;44.582;2024-01-15T20:59:43;86855.19;;;-0.70;49.32
80682;BME280;70045;40.200;44.582;2024-01-15T21:02:12;86849.91;;;-0.78;49.04
80682;BME280;70045;40.200;44.582;2024-01-15T21:04:37;86846.63;;;-0.90;48.90
80682;BME280;70045;40.200;44.582;2024-01-15T21:07:05;86845.81;;;-1.07;49.49
80682;BME280;70045;40.200;44.582;2024-01-15T21:09:31;86838.09;;;-1.35;50.10
80682;BME280;70045;40.200;44.582;2024-01-15T21:11:56;86847.81;;;-1.49;50.34
80682;BME280;70045;40.200;44.582;2024-01-15T21:14:25;86852.69;;;-1.57;50.35
80682;BME280;70045;40.200;44.582;2024-01-15T21:16:51;86849.81;;;-1.67;50.27
80682;BME280;70045;40.200;44.582;2024-01-15T21:19:16;86851.41;;;-1.75;50.08
80682;BME280;70045;40.200;44.582;2024-01-15T21:21:43;86833.91;;;-1.89;50.24
80682;BME280;70045;40.200;44.582;2024-01-15T21:24:08;86843.13;;;-1.84;50.63
80682;BME280;70045;40.200;44.582;2024-01-15T21:26:36;86838.03;;;-1.84;51.04
80682;BME280;70045;40.200;44.582;2024-01-15T21:29:02;86829.88;;;-1.90;51.27
80682;BME280;70045;40.200;44.582;2024-01-15T21:31:27;86831.19;;;-1.84;51.98
80682;BME280;70045;40.200;44.582;2024-01-15T21:33:53;86826.72;;;-1.75;52.33
80682;BME280;70045;40.200;44.582;2024-01-15T21:36:18;86836.72;;;-1.57;52.32
80682;BME280;70045;40.200;44.582;2024-01-15T21:38:48;86842.63;;;-1.41;51.68
80682;BME280;70045;40.200;44.582;2024-01-15T21:41:14;86832.25;;;-1.36;51.77
80682;BME280;70045;40.200;44.582;2024-01-15T21:43:39;86834.78;;;-1.36;52.28
80682;BME280;70045;40.200;44.582;2024-01-15T21:46:04;86828.13;;;-1.28;52.76
80682;BME280;70045;40.200;44.582;2024-01-15T21:48:30;86833.31;;;-1.12;52.83
80682;BME280;70045;40.200;44.582;2024-01-15T21:50:59;86828.63;;;-1.10;51.83
80682;BME280;70045;40.200;44.582;2024-01-15T21:53:24;86831.41;;;-1.15;51.88
80682;BME280;70045;40.200;44.582;2024-01-15T21:55:50;86826.31;;;-1.15;52.90
80682;BME280;70045;40.200;44.582;2024-01-15T21:58:15;86835.63;;;-1.07;52.59
80682;BME280;70045;40.200;44.582;2024-01-15T22:00:41;86831.25;;;-0.94;51.98
80682;BME280;70045;40.200;44.582;2024-01-15T22:03:09;86825.41;;;-0.82;51.35
80682;BME280;70045;40.200;44.582;2024-01-15T22:05:34;86823.50;;;-0.85;52.67
80682;BME280;70045;40.200;44.582;2024-01-15T22:08:01;86828.91;;;-0.87;52.66